Versailles, IN

11:58 PM EDT on August 22, 2014 (GMT -0400)
KINDILLS2 | Change Station
CLOSE
Current Station
Personal Weather Station
Location: Dillsboro, IN
Elevation: 840 ft
Nearby Weather Stations

Elev 840 ft 39.00 °N, 85.02 °W | Updated 12 seconds ago

Partly Cloudy
Partly Cloudy
75.6 °F
Feels Like 75 °F
N
1.0
Wind Variable Wind from SW
Gusts 4.0 mph

Today
High -- | Low -- °F
--% Chance of Precip.
Yesterday
High -- | Low -- °F
Precip. -- in
7:00 AM 8:26 PM
Waning Crescent, 5% visible
Pressure 29.99 in
Visibility 6.0 miles
Clouds Few 25000 ft
Heat Index 75 °F
Dew Point 74 °F
Humidity 94%
Rainfall 0.02 in
Snow Depth Not available.
UV 0 out of 12
Pollen 10.10 out of 12
Air Quality Not available.
Flu Activity Not available.
METAR KCVG 230352Z 00000KT 6SM BR FEW250 22/21 A3001 RMK AO2 SLP154 T02220211

More Conditions Fewer Conditions

Pressure 29.99 in
Visibility 6.0 miles
Clouds Few 25000 ft
Heat Index 75 °F
Dew Point 74 °F
Humidity 94%
Rainfall 0.02 in
Snow Depth Not available.
UV 0 out of 12
Pollen 10.10 out of 12
Air Quality Not available.
Flu Activity Not available.
METAR KCVG 230352Z 00000KT 6SM BR FEW250 22/21 A3001 RMK AO2 SLP154 T02220211

More Conditions Fewer Conditions

10-Day Weather Forecast

Almanac

Astronomy

Aug. 22, 2014 Rise Set
Actual Time 7:00 AM EDT 8:26 PM EDT
Civil Twilight 6:32 AM EDT 8:54 PM EDT
Nautical Twilight 5:58 AM EDT 9:27 PM EDT
Astronomical Twilight 5:23 AM EDT 10:03 PM EDT
Moon 4:23 AM EDT (8/22) 6:33 PM EDT (8/22)
Length of Visible Light 14h 21m
Length of Day
13h 25m
Tomorrow will be 2m 21s shorter.
Waning Crescent, 5% of the Moon is Illuminated
Today
Waning Crescent
Aug 25
New
Sep 2
First Quarter
Sep 8
Full
Sep 15
Last Quarter

Today's Extremes

State Highs State Lows

Community

WunderPhotos

Upload Photos

1,746,352 photos uploaded!

WunderBlogs® & News

Nearby

Snow Depth

Station Depth Elevation
No new snow has been reported.

Earthquake Activity

City Distance Mag. Time & Date
No recent earthquake activity has been reported nearby.
Minimum magnitude displayed is 2.5.

Coastal Water Temperatures

Place Temperature
No Stations Reporting

Nearby Weather Stations